Time,TemperatureF,DewpointF,PressureIn,WindDirection,WindDirectionDegrees,WindSpeedMPH,WindSpeedGustMPH,Humidity,HourlyPrecipIn,Conditions,Clouds,dailyrainin,SoftwareType,DateUTC
2013-01-22 09:20:00,51.1,32.1,30.34,ENE,57,0.0,0.0,48,0.00,RA,,0.18,WeatherDisplay:10.37,2013-01-22 08:20:00,
2013-01-22 09:25:00,51.1,32.1,30.34,NE,45,0.0,1.0,48,0.01,RA,,0.18,WeatherDisplay:10.37,2013-01-22 08:25:00,
2013-01-22 09:30:00,50.9,31.9,30.34,South,189,0.0,1.0,48,0.00,CLR,,0.18,WeatherDisplay:10.37,2013-01-22 08:30:00,
2013-01-22 09:35:00,50.9,31.9,30.34,WSW,244,0.0,0.0,48,0.00,CLR,,0.18,WeatherDisplay:10.37,2013-01-22 08:35:00,
2013-01-22 09:40:00,50.9,31.9,30.34,SW,220,0.0,0.0,48,0.00,CLR,,0.18,WeatherDisplay:10.37,2013-01-22 08:40:00,
2013-01-22 09:45:00,50.9,32.4,30.34,SSW,209,0.0,2.0,49,0.00,CLR,,0.18,WeatherDisplay:10.37,2013-01-22 08:45:00,
2013-01-22 09:50:00,51.1,32.1,30.34,WSW,243,2.0,4.0,48,0.00,CLR,,0.18,WeatherDisplay:10.37,2013-01-22 08:50:00,
2013-01-22 09:55:00,51.3,31.7,30.34,West,262,1.0,4.0,47,0.00,CLR,,0.18,WeatherDisplay:10.37,2013-01-22 08:55:00,
2013-01-22 10:00:00,51.4,31.9,30.34,West,262,1.0,4.0,47,0.00,CLR,,0.18,WeatherDisplay:10.37,2013-01-22 09:00:00,
2013-01-22 10:05:00,51.4,31.9,30.34,West,270,1.0,4.0,47,0.00,CLR,,0.18,WeatherDisplay:10.37,2013-01-22 09:05:00,
2013-01-22 10:10:00,51.4,31.9,30.34,West,268,1.0,3.0,47,0.00,CLR,,0.18,WeatherDisplay:10.37,2013-01-22 09:10:00,
2013-01-22 10:15:00,51.4,31.9,30.34,WSW,257,1.0,3.0,47,0.00,CLR,,0.18,WeatherDisplay:10.37,2013-01-22 09:15:00,
2013-01-22 10:20:00,51.3,32.2,30.34,WSW,244,1.0,3.0,48,0.00,CLR,,0.18,WeatherDisplay:10.37,2013-01-22 09:20:00,
2013-01-22 10:25:00,51.3,32.2,30.34,SW,229,1.0,3.0,48,0.00,CLR,,0.18,WeatherDisplay:10.37,2013-01-22 09:25:00,
2013-01-22 10:30:00,51.3,32.2,30.34,West,275,1.0,3.0,48,0.00,CLR,,0.18,WeatherDisplay:10.37,2013-01-22 09:30:00,
2013-01-22 10:35:00,51.3,32.2,30.34,WNW,295,0.0,2.0,48,0.00,CLR,,0.18,WeatherDisplay:10.37,2013-01-22 09:35:00,
2013-01-22 10:40:00,51.1,32.6,30.34,East,90,1.0,3.0,49,0.00,CLR,,0.18,WeatherDisplay:10.37,2013-01-22 09:40:00,
2013-01-22 10:45:00,50.9,32.4,30.34,East,90,0.0,3.0,49,0.00,CLR,,0.18,WeatherDisplay:10.37,2013-01-22 09:45:00,
2013-01-22 10:50:00,50.9,32.4,30.34,East,90,0.0,1.0,49,0.00,CLR,,0.18,WeatherDisplay:10.37,2013-01-22 09:50:00,
2013-01-22 10:55:00,50.7,32.2,30.34,East,90,0.0,0.0,49,0.00,CLR,,0.18,WeatherDisplay:10.37,2013-01-22 09:55:00,
2013-01-22 11:00:00,50.5,32.6,30.34,East,90,0.0,0.0,50,0.00,CLR,,0.18,WeatherDisplay:10.37,2013-01-22 10:00:00,
2013-01-22 11:05:00,50.4,32.4,30.34,East,96,0.0,2.0,50,0.00,CLR,,0.18,WeatherDisplay:10.37,2013-01-22 10:05:00,
2013-01-22 11:10:00,50.4,32.9,30.34,SE,124,0.0,2.0,51,0.00,CLR,,0.18,WeatherDisplay:10.37,2013-01-22 10:10:00,
2013-01-22 11:15:00,50.4,32.9,30.34,ESE,116,0.0,2.0,51,0.00,CLR,,0.18,WeatherDisplay:10.37,2013-01-22 10:15:00,
2013-01-22 11:20:00,50.4,33.4,30.35,East,95,0.0,0.0,52,0.00,CLR,,0.18,WeatherDisplay:10.37,2013-01-22 10:20:00,
2013-01-22 11:25:00,50.2,33.2,30.35,South,189,0.0,2.0,52,0.00,CLR,,0.18,WeatherDisplay:10.37,2013-01-22 10:25:00,
2013-01-22 11:30:00,50.0,33.1,30.35,WSW,251,1.0,2.0,52,0.00,CLR,,0.18,WeatherDisplay:10.37,2013-01-22 10:30:00,
2013-01-22 11:35:00,49.8,33.4,30.35,West,270,1.0,2.0,53,0.00,CLR,,0.18,WeatherDisplay:10.37,2013-01-22 10:35:00,
2013-01-22 11:40:00,49.8,33.4,30.35,West,270,0.0,2.0,53,0.00,CLR,,0.18,WeatherDisplay:10.37,2013-01-22 10:40:00,
2013-01-22 11:45:00,49.6,33.2,30.36,West,265,0.0,0.0,53,0.00,CLR,,0.18,WeatherDisplay:10.37,2013-01-22 10:45:00,
2013-01-22 11:50:00,49.5,33.5,30.36,WSW,246,1.0,2.0,54,0.00,CLR,,0.18,WeatherDisplay:10.37,2013-01-22 10:50:00,
2013-01-22 11:55:00,49.5,33.5,30.36,WSW,252,0.0,2.0,54,0.00,CLR,,0.18,WeatherDisplay:10.37,2013-01-22 10:55:00,
2013-01-22 12:00:00,49.5,33.5,30.37,WNW,293,0.0,1.0,54,0.00,CLR,,0.18,WeatherDisplay:10.37,2013-01-22 11:00:00,
2013-01-22 12:05:00,49.5,33.5,30.37,West,272,0.0,1.0,54,0.00,CLR,,0.18,WeatherDisplay:10.37,2013-01-22 11:05:00,
2013-01-22 12:10:00,49.5,33.5,30.37,WNW,293,1.0,2.0,54,0.00,CLR,,0.18,WeatherDisplay:10.37,2013-01-22 11:10:00,
2013-01-22 12:15:00,49.6,33.7,30.37,NW,326,1.0,2.0,54,0.00,CLR,,0.18,WeatherDisplay:10.37,2013-01-22 11:15:00,
2013-01-22 12:20:00,50.0,34.5,30.37,WNW,299,1.0,2.0,55,0.00,CLR,,0.18,WeatherDisplay:10.37,2013-01-22 11:20:00,
2013-01-22 12:25:00,50.2,34.2,30.37,WNW,282,0.0,2.0,54,0.00,CLR,,0.18,WeatherDisplay:10.37,2013-01-22 11:25:00,
2013-01-22 12:30:00,50.4,34.3,30.37,ESE,102,0.0,0.0,54,0.00,CLR,,0.18,WeatherDisplay:10.37,2013-01-22 11:30:00,
2013-01-22 12:35:00,50.5,34.5,30.37,ESE,109,0.0,0.0,54,0.00,CLR,,0.18,WeatherDisplay:10.37,2013-01-22 11:35:00,
2013-01-22 12:40:00,50.9,34.8,30.37,East,90,0.0,0.0,54,0.00,CLR,,0.18,WeatherDisplay:10.37,2013-01-22 11:40:00,
2013-01-22 12:45:00,51.3,35.2,30.37,ESE,105,0.0,0.0,54,0.00,CLR,,0.18,WeatherDisplay:10.37,2013-01-22 11:45:00,
2013-01-22 12:50:00,51.6,35.0,30.37,SSE,158,0.0,1.0,53,0.00,CLR,,0.18,WeatherDisplay:10.37,2013-01-22 11:50:00,
2013-01-22 12:55:00,51.6,35.0,30.37,SSE,161,0.0,1.0,53,0.00,CLR,,0.18,WeatherDisplay:10.37,2013-01-22 11:55:00,
2013-01-22 13:00:00,52.0,35.4,30.37,South,191,0.0,1.0,53,0.00,CLR,,0.18,WeatherDisplay:10.37,2013-01-22 12:00:00,
2013-01-22 13:05:00,52.3,35.2,30.38,SW,219,0.0,0.0,52,0.00,CLR,,0.18,WeatherDisplay:10.37,2013-01-22 12:05:00,
2013-01-22 13:10:00,52.5,35.4,30.38,South,175,0.0,0.0,52,0.00,CLR,,0.18,WeatherDisplay:10.37,2013-01-22 12:10:00,
2013-01-22 13:15:00,50.2,45.5,29.65,SW,225,0.0,0.0,84,0.00,CLR,,0.01,WeatherDisplay:10.37,2013-01-22 12:15:00,
2013-01-22 13:16:00,50.2,45.5,29.65,SW,225,0.0,0.0,84,0.00,CLR,,0.01,WeatherDisplay:10.37,2013-01-22 12:16:00,
2013-01-22 13:20:00,53.4,35.2,30.38,SE,142,0.0,2.0,50,0.00,CLR,,0.18,WeatherDisplay:10.37,2013-01-22 12:20:00,
2013-01-22 13:21:00,56.7,36.1,29.78,East,90,13.8,13.8,46,0.12,RA,,0.13,WeatherDisplay:10.37,2013-01-22 12:21:00,
2013-01-22 13:25:00,53.8,35.6,30.38,SE,128,0.0,2.0,50,0.00,CLR,,0.18,WeatherDisplay:10.37,2013-01-22 12:25:00,
2013-01-22 13:26:00,56.8,36.3,29.78,East,90,15.0,15.0,46,0.12,RA,,0.13,WeatherDisplay:10.37,2013-01-22 12:26:00,
2013-01-22 13:30:00,54.1,34.9,30.38,SSE,154,0.0,2.0,48,0.00,CLR,,0.18,WeatherDisplay:10.37,2013-01-22 12:30:00,
2013-01-22 13:31:00,56.7,36.1,29.78,North,0,12.7,12.7,46,0.12,CLR,,0.13,WeatherDisplay:10.37,2013-01-22 12:31:00,
2013-01-22 13:35:00,54.3,35.0,30.38,East,87,0.0,2.0,48,0.00,CLR,,0.18,WeatherDisplay:10.37,2013-01-22 12:35:00,
2013-01-22 13:36:00,56.8,36.3,29.79,East,90,10.4,10.4,46,0.12,CLR,,0.13,WeatherDisplay:10.37,2013-01-22 12:36:00,
2013-01-22 13:40:00,54.7,34.8,30.38,NE,48,1.0,2.0,47,0.00,CLR,,0.18,WeatherDisplay:10.37,2013-01-22 12:40:00,
2013-01-22 13:41:00,56.7,35.5,29.79,NNW,338,15.0,15.0,45,0.12,CLR,,0.13,WeatherDisplay:10.37,2013-01-22 12:41:00,
2013-01-22 13:45:00,55.0,34.6,30.38,ENE,72,0.0,2.0,46,0.00,CLR,,0.18,WeatherDisplay:10.37,2013-01-22 12:45:00,
2013-01-22 13:46:00,56.5,34.8,29.79,ENE,68,10.4,10.4,44,0.12,CLR,,0.13,WeatherDisplay:10.37,2013-01-22 12:46:00,
2013-01-22 13:50:00,55.4,34.9,30.38,ESE,117,0.0,2.0,46,0.00,CLR,,0.18,WeatherDisplay:10.37,2013-01-22 12:50:00,
2013-01-22 13:51:00,56.5,35.9,29.79,NE,45,10.4,10.4,46,0.12,CLR,,0.13,WeatherDisplay:10.37,2013-01-22 12:51:00,
2013-01-22 13:55:00,55.6,34.6,30.38,ESE,106,1.0,2.0,45,0.00,CLR,,0.18,WeatherDisplay:10.37,2013-01-22 12:55:00,
2013-01-22 13:56:00,56.7,36.1,29.79,East,90,12.7,12.7,46,0.12,CLR,,0.13,WeatherDisplay:10.37,2013-01-22 12:56:00,
2013-01-22 14:00:00,56.1,35.1,30.38,ENE,76,0.0,2.0,45,0.00,CLR,,0.18,WeatherDisplay:10.37,2013-01-22 13:00:00,
2013-01-22 14:01:00,57.9,36.1,29.79,NE,45,10.4,10.4,44,0.12,CLR,,0.13,WeatherDisplay:10.37,2013-01-22 13:01:00,
2013-01-22 14:05:00,56.3,35.2,30.38,SW,225,0.0,2.0,45,0.00,CLR,,0.18,WeatherDisplay:10.37,2013-01-22 13:05:00,
2013-01-22 14:10:00,56.3,34.6,30.39,SW,219,0.0,2.0,44,0.00,CLR,,0.18,WeatherDisplay:10.37,2013-01-22 13:10:00,
2013-01-22 14:15:00,56.3,34.1,30.39,South,177,0.0,2.0,43,0.00,CLR,,0.18,WeatherDisplay:10.37,2013-01-22 13:15:00,
2013-01-22 14:20:00,56.3,34.1,30.39,NE,56,0.0,2.0,43,0.00,CLR,,0.18,WeatherDisplay:10.37,2013-01-22 13:20:00,
2013-01-22 14:25:00,56.3,34.1,30.39,NE,56,0.0,1.0,43,0.00,CLR,,0.18,WeatherDisplay:10.37,2013-01-22 13:25:00,
2013-01-22 14:30:00,56.5,34.2,30.39,NNW,337,0.0,1.0,43,0.00,CLR,,0.18,WeatherDisplay:10.37,2013-01-22 13:30:00,
2013-01-22 14:40:00,56.5,34.2,30.39,North,0,0.0,0.0,43,0.00,CLR,,0.18,WeatherDisplay:10.37,2013-01-22 13:40:00,
2013-01-22 14:45:00,56.5,34.2,30.39,North,0,0.0,0.0,43,0.00,CLR,,0.18,WeatherDisplay:10.37,2013-01-22 13:45:00,
2013-01-22 15:00:00,58.5,35.4,29.79,NE,45,8.1,8.1,42,0.12,CLR,,0.13,WeatherDisplay:10.37,2013-01-22 14:00:00,
2013-01-22 15:05:00,54.7,35.4,29.81,NE,45,16.1,16.1,48,0.13,RA,,0.14,WeatherDisplay:10.37,2013-01-22 14:05:00,
2013-01-22 15:10:00,53.8,36.1,29.83,East,90,16.1,16.1,51,0.14,RA,,0.15,WeatherDisplay:10.37,2013-01-22 14:10:00,
2013-01-22 15:15:00,51.8,37.5,29.83,North,0,12.7,12.7,58,0.02,RA,,0.17,WeatherDisplay:10.37,2013-01-22 14:15:00,
2013-01-22 15:20:00,51.1,37.7,29.83,East,90,17.5,17.5,60,0.04,RA,,0.17,WeatherDisplay:10.37,2013-01-22 14:20:00,
2013-01-22 15:25:00,50.9,38.3,29.84,North,0,13.8,13.8,62,0.04,RA,,0.18,WeatherDisplay:10.37,2013-01-22 14:25:00,
2013-01-22 17:10:00,47.7,40.5,29.91,West,270,0.0,0.0,76,0.00,CLR,,0.18,WeatherDisplay:10.37,2013-01-22 16:10:00,
2013-01-22 17:15:00,47.7,40.5,29.91,West,270,0.0,0.0,76,0.00,CLR,,0.18,WeatherDisplay:10.37,2013-01-22 16:15:00,
2013-01-22 17:20:00,47.7,40.5,29.91,West,266,0.0,0.0,76,0.00,CLR,,0.18,WeatherDisplay:10.37,2013-01-22 16:20:00,
2013-01-22 17:25:00,47.7,40.8,29.91,WSW,243,0.0,1.0,77,0.00,CLR,,0.18,WeatherDisplay:10.37,2013-01-22 16:25:00,
2013-01-22 17:30:00,47.7,40.8,29.91,SW,230,0.0,1.0,77,0.00,CLR,,0.18,WeatherDisplay:10.37,2013-01-22 16:30:00,
2013-01-22 17:35:00,47.7,40.8,29.90,NW,305,0.0,0.0,77,0.00,CLR,,0.18,WeatherDisplay:10.37,2013-01-22 16:35:00,
2013-01-22 17:40:00,47.7,40.8,29.90,East,93,0.0,0.0,77,0.00,CLR,,0.18,WeatherDisplay:10.37,2013-01-22 16:40:00,
2013-01-22 17:45:00,47.7,40.8,29.90,SE,140,0.0,0.0,77,0.00,CLR,,0.18,WeatherDisplay:10.37,2013-01-22 16:45:00,
2013-01-22 17:50:00,47.7,40.8,29.90,SW,224,1.0,2.0,77,0.00,CLR,,0.18,WeatherDisplay:10.37,2013-01-22 16:50:00,
2013-01-22 17:55:00,47.7,41.1,29.90,West,265,0.0,2.0,78,0.00,CLR,,0.18,WeatherDisplay:10.37,2013-01-22 16:55:00,
2013-01-22 18:00:00,47.7,41.1,29.90,WSW,237,0.0,0.0,78,0.00,CLR,,0.18,WeatherDisplay:10.37,2013-01-22 17:00:00,
2013-01-22 18:05:00,47.5,41.0,29.90,SW,225,0.0,0.0,78,0.00,RA,,0.00,WeatherDisplay:10.37,2013-01-22 17:05:00,
2013-01-22 18:10:00,47.5,41.0,29.89,SW,229,0.0,1.0,78,0.00,RA,,0.00,WeatherDisplay:10.37,2013-01-22 17:10:00,
2013-01-22 18:15:00,47.5,41.0,29.89,WSW,252,0.0,1.0,78,0.00,CLR,,0.00,WeatherDisplay:10.37,2013-01-22 17:15:00,
2013-01-22 18:20:00,47.5,41.0,29.89,West,270,0.0,0.0,78,0.00,CLR,,0.00,WeatherDisplay:10.37,2013-01-22 17:20:00,
2013-01-22 18:25:00,47.3,40.8,29.89,West,270,0.0,2.0,78,0.00,CLR,,0.00,WeatherDisplay:10.37,2013-01-22 17:25:00,
2013-01-22 18:30:00,47.3,40.8,29.90,West,270,0.0,2.0,78,0.00,CLR,,0.00,WeatherDisplay:10.37,2013-01-22 17:30:00,
2013-01-22 18:35:00,47.1,40.6,29.90,West,266,0.0,0.0,78,0.00,CLR,,0.00,WeatherDisplay:10.37,2013-01-22 17:35:00,
2013-01-22 18:40:00,46.9,40.4,29.90,WSW,242,0.0,0.0,78,0.00,CLR,,0.00,WeatherDisplay:10.37,2013-01-22 17:40:00,
2013-01-22 18:45:00,46.9,40.8,29.90,SE,132,0.0,0.0,79,0.00,CLR,,0.00,WeatherDisplay:10.37,2013-01-22 17:45:00,
2013-01-22 18:50:00,46.9,40.8,29.90,East,90,0.0,1.0,79,0.00,CLR,,0.00,WeatherDisplay:10.37,2013-01-22 17:50:00,
2013-01-22 18:55:00,46.9,40.8,29.90,West,270,0.0,2.0,79,0.00,CLR,,0.00,WeatherDisplay:10.37,2013-01-22 17:55:00,
2013-01-22 19:00:00,46.9,40.8,29.90,West,274,0.0,2.0,79,0.00,CLR,,0.00,WeatherDisplay:10.37,2013-01-22 18:00:00,
2013-01-22 19:05:00,46.8,40.6,29.90,WNW,292,0.0,1.0,79,0.00,CLR,,0.00,WeatherDisplay:10.37,2013-01-22 18:05:00,
2013-01-22 19:10:00,46.8,40.6,29.90,WNW,283,0.0,0.0,79,0.00,CLR,,0.00,WeatherDisplay:10.37,2013-01-22 18:10:00,
2013-01-22 19:15:00,46.8,40.6,29.91,SW,220,0.0,0.0,79,0.00,CLR,,0.00,WeatherDisplay:10.37,2013-01-22 18:15:00,
2013-01-22 19:20:00,46.6,40.4,29.90,SSW,211,0.0,2.0,79,0.00,CLR,,0.00,WeatherDisplay:10.37,2013-01-22 18:20:00,
2013-01-22 19:25:00,46.4,40.2,29.90,WSW,252,0.0,2.0,79,0.00,CLR,,0.00,WeatherDisplay:10.37,2013-01-22 18:25:00,
2013-01-22 19:30:00,46.4,40.2,29.90,West,266,0.0,1.0,79,0.00,CLR,,0.00,WeatherDisplay:10.37,2013-01-22 18:30:00,
2013-01-22 19:35:00,46.2,40.1,29.90,WSW,241,0.0,1.0,79,0.00,CLR,,0.00,WeatherDisplay:10.37,2013-01-22 18:35:00,
2013-01-22 19:40:00,46.2,40.1,29.90,SSW,213,0.0,1.0,79,0.00,CLR,,0.00,WeatherDisplay:10.37,2013-01-22 18:40:00,
2013-01-22 19:45:00,46.2,40.1,29.90,SW,216,0.0,0.0,79,0.00,CLR,,0.00,WeatherDisplay:10.37,2013-01-22 18:45:00,
2013-01-22 19:50:00,46.2,40.1,29.90,SW,229,0.0,0.0,79,0.00,CLR,,0.00,WeatherDisplay:10.37,2013-01-22 18:50:00,
2013-01-22 19:55:00,46.2,40.1,29.90,WSW,252,0.0,0.0,79,0.00,CLR,,0.00,WeatherDisplay:10.37,2013-01-22 18:55:00,
2013-01-22 20:00:00,46.2,40.1,29.90,West,270,0.0,0.0,79,0.00,CLR,,0.00,WeatherDisplay:10.37,2013-01-22 19:00:00,
2013-01-22 20:05:00,46.2,39.7,29.91,West,270,0.0,1.0,78,0.00,CLR,,0.00,WeatherDisplay:10.37,2013-01-22 19:05:00,
2013-01-22 20:10:00,46.2,39.7,29.91,West,270,0.0,1.0,78,0.00,CLR,,0.00,WeatherDisplay:10.37,2013-01-22 19:10:00,
2013-01-22 20:15:00,46.2,39.7,29.91,West,270,0.0,2.0,78,0.00,CLR,,0.00,WeatherDisplay:10.37,2013-01-22 19:15:00,
2013-01-22 20:20:00,46.2,39.7,29.91,West,268,0.0,2.0,78,0.00,CLR,,0.00,WeatherDisplay:10.37,2013-01-22 19:20:00,
2013-01-22 20:25:00,46.2,39.7,29.91,West,263,0.0,1.0,78,0.00,CLR,,0.00,WeatherDisplay:10.37,2013-01-22 19:25:00,
2013-01-22 20:30:00,46.2,39.7,29.91,WNW,289,0.0,0.0,78,0.00,CLR,,0.00,WeatherDisplay:10.37,2013-01-22 19:30:00,
2013-01-22 20:35:00,46.2,39.7,29.91,NW,309,0.0,1.0,78,0.00,CLR,,0.00,WeatherDisplay:10.37,2013-01-22 19:35:00,
2013-01-22 20:40:00,46.0,39.6,29.91,West,265,0.0,1.0,78,0.00,CLR,,0.00,WeatherDisplay:10.37,2013-01-22 19:40:00,
2013-01-22 20:45:00,46.0,39.6,29.91,WSW,252,0.0,1.0,78,0.00,CLR,,0.00,WeatherDisplay:10.37,2013-01-22 19:45:00,
2013-01-22 20:50:00,46.0,39.6,29.91,West,270,0.0,1.0,78,0.00,CLR,,0.00,WeatherDisplay:10.37,2013-01-22 19:50:00,
2013-01-22 20:55:00,46.2,39.7,29.91,West,274,0.0,0.0,78,0.00,CLR,,0.00,WeatherDisplay:10.37,2013-01-22 19:55:00,
2013-01-22 21:00:00,46.2,39.7,29.91,WNW,297,0.0,0.0,78,0.00,CLR,,0.00,WeatherDisplay:10.37,2013-01-22 20:00:00,
2013-01-22 21:05:00,46.2,39.7,29.91,NW,311,0.0,0.0,78,0.00,CLR,,0.00,WeatherDisplay:10.37,2013-01-22 20:05:00,
2013-01-22 21:10:00,46.4,39.9,29.91,WNW,288,0.0,1.0,78,0.00,CLR,,0.00,WeatherDisplay:10.37,2013-01-22 20:10:00,
2013-01-22 21:15:00,46.4,39.9,29.91,West,270,0.0,1.0,78,0.00,CLR,,0.00,WeatherDisplay:10.37,2013-01-22 20:15:00,
2013-01-22 21:20:00,46.4,39.9,29.91,West,266,0.0,1.0,78,0.00,CLR,,0.00,WeatherDisplay:10.37,2013-01-22 20:20:00,
2013-01-22 21:25:00,46.8,40.3,29.91,WSW,241,1.0,2.0,78,0.00,CLR,,0.00,WeatherDisplay:10.37,2013-01-22 20:25:00,
2013-01-22 21:30:00,46.8,40.6,29.91,SW,214,0.0,2.0,79,0.00,CLR,,0.00,WeatherDisplay:10.37,2013-01-22 20:30:00,
2013-01-22 21:35:00,46.9,40.8,29.91,WSW,247,1.0,2.0,79,0.00,CLR,,0.00,WeatherDisplay:10.37,2013-01-22 20:35:00,
2013-01-22 21:40:00,46.9,40.8,29.91,West,265,0.0,2.0,79,0.00,CLR,,0.00,WeatherDisplay:10.37,2013-01-22 20:40:00,
2013-01-22 21:45:00,46.9,40.8,29.91,WSW,237,0.0,0.0,79,0.00,CLR,,0.00,WeatherDisplay:10.37,2013-01-22 20:45:00,
2013-01-22 21:50:00,46.9,40.8,29.91,SW,225,0.0,0.0,79,0.00,CLR,,0.00,WeatherDisplay:10.37,2013-01-22 20:50:00,
2013-01-22 21:55:00,49.6,40.6,29.90,SW,225,1.2,0.0,71,0.00,,,0.18,WeatherDisplay:10.37,2013-01-22 20:55:00,
2013-01-22 22:00:00,49.5,40.8,29.91,West,270,1.2,0.0,72,0.00,CLR,,0.18,WeatherDisplay:10.37,2013-01-22 21:00:00,
2013-01-22 22:05:00,49.5,40.8,29.91,West,270,1.2,0.0,72,0.00,CLR,,0.18,WeatherDisplay:10.37,2013-01-22 21:05:00,
2013-01-22 22:10:00,49.1,40.5,29.90,West,270,0.0,0.0,72,0.00,CLR,,0.18,WeatherDisplay:10.37,2013-01-22 21:10:00,
2013-01-22 22:15:00,48.9,40.3,29.90,West,270,0.0,0.0,72,0.00,CLR,,0.18,WeatherDisplay:10.37,2013-01-22 21:15:00,
2013-01-22 22:20:00,48.9,40.3,29.90,West,270,0.0,0.0,72,0.00,CLR,,0.18,WeatherDisplay:10.37,2013-01-22 21:20:00,
2013-01-22 22:25:00,48.9,40.3,29.90,West,270,1.2,0.0,72,0.00,CLR,,0.18,WeatherDisplay:10.37,2013-01-22 21:25:00,
2013-01-22 22:30:00,46.9,41.1,29.91,WSW,247,0.0,1.0,80,0.00,CLR,,0.00,WeatherDisplay:10.37,2013-01-22 21:30:00,
2013-01-22 22:31:00,48.7,40.5,29.90,SW,225,0.0,0.0,73,0.00,CLR,,0.18,WeatherDisplay:10.37,2013-01-22 21:31:00,
2013-01-22 22:35:00,46.9,41.1,29.91,WSW,252,0.0,0.0,80,0.00,CLR,,0.00,WeatherDisplay:10.37,2013-01-22 21:35:00,
2013-01-22 22:36:00,48.6,40.3,29.91,SW,225,1.2,0.0,73,0.00,CLR,,0.18,WeatherDisplay:10.37,2013-01-22 21:36:00,
2013-01-22 22:40:00,47.1,41.3,29.91,West,270,0.0,0.0,80,0.00,CLR,,0.00,WeatherDisplay:10.37,2013-01-22 21:40:00,
2013-01-22 22:41:00,48.4,40.1,29.91,West,270,0.0,0.0,73,0.00,CLR,,0.18,WeatherDisplay:10.37,2013-01-22 21:41:00,
2013-01-22 22:45:00,47.1,41.3,29.90,West,266,0.0,0.0,80,0.00,CLR,,0.00,WeatherDisplay:10.37,2013-01-22 21:45:00,
2013-01-22 22:47:00,48.2,40.3,29.91,West,270,0.0,0.0,74,0.00,CLR,,0.18,WeatherDisplay:10.37,2013-01-22 21:47:00,
2013-01-22 22:50:00,46.9,41.1,29.91,WSW,243,0.0,0.0,80,0.00,CLR,,0.00,WeatherDisplay:10.37,2013-01-22 21:50:00,
2013-01-22 22:52:00,48.0,40.1,29.91,West,270,1.2,0.0,74,0.00,CLR,,0.18,WeatherDisplay:10.37,2013-01-22 21:52:00,
2013-01-22 22:55:00,47.1,41.3,29.91,SW,225,0.0,2.0,80,0.01,RA,,0.01,WeatherDisplay:10.37,2013-01-22 21:55:00,
2013-01-22 22:57:00,47.8,40.3,29.91,West,270,0.0,0.0,75,0.00,CLR,,0.18,WeatherDisplay:10.37,2013-01-22 21:57:00,
2013-01-22 23:00:00,47.1,41.3,29.90,SW,229,0.0,2.0,80,0.01,RA,,0.01,WeatherDisplay:10.37,2013-01-22 22:00:00,
2013-01-22 23:02:00,47.8,40.3,29.91,West,270,0.0,0.0,75,0.00,CLR,,0.18,WeatherDisplay:10.37,2013-01-22 22:02:00,
2013-01-22 23:05:00,47.5,41.6,29.90,WSW,247,0.0,0.0,80,0.00,CLR,,0.01,WeatherDisplay:10.37,2013-01-22 22:05:00,
2013-01-22 23:07:00,47.8,40.3,29.91,West,270,0.0,0.0,75,0.00,CLR,,0.18,WeatherDisplay:10.37,2013-01-22 22:07:00,
2013-01-22 23:10:00,47.5,41.6,29.90,SSE,157,0.0,0.0,80,0.00,CLR,,0.01,WeatherDisplay:10.37,2013-01-22 22:10:00,
2013-01-22 23:15:00,47.7,41.8,29.90,South,183,0.0,0.0,80,0.00,CLR,,0.01,WeatherDisplay:10.37,2013-01-22 22:15:00,
2013-01-22 23:20:00,47.7,41.8,29.90,SW,225,0.0,0.0,80,0.00,CLR,,0.01,WeatherDisplay:10.37,2013-01-22 22:20:00,
2013-01-22 23:25:00,47.7,42.1,29.90,SW,229,0.0,2.0,81,0.00,CLR,,0.01,WeatherDisplay:10.37,2013-01-22 22:25:00,